sensor_id;sensor_type;location;lat;lon;timestamp;P1;durP1;ratioP1;P2;durP2;ratioP2
10721;SDS011;5412;59.450;18.124;2022-12-24T00:01:22;0.90;;;0.80;;
10721;SDS011;5412;59.450;18.124;2022-12-24T00:03:47;4.43;;;1.17;;
10721;SDS011;5412;59.450;18.124;2022-12-24T00:06:18;1.67;;;1.20;;
10721;SDS011;5412;59.450;18.124;2022-12-24T00:08:46;2.13;;;1.30;;
10721;SDS011;5412;59.450;18.124;2022-12-24T00:11:12;1.47;;;1.00;;
10721;SDS011;5412;59.450;18.124;2022-12-24T00:13:38;1.83;;;0.90;;
10721;SDS011;5412;59.450;18.124;2022-12-24T00:16:04;18.13;;;8.03;;
10721;SDS011;5412;59.450;18.124;2022-12-24T00:18:30;1.87;;;1.27;;
10721;SDS011;5412;59.450;18.124;2022-12-24T00:20:56;4.90;;;2.33;;
10721;SDS011;5412;59.450;18.124;2022-12-24T00:23:22;6.33;;;1.50;;
10721;SDS011;5412;59.450;18.124;2022-12-24T00:25:48;4.20;;;1.57;;
10721;SDS011;5412;59.450;18.124;2022-12-24T00:28:14;2.03;;;1.03;;
10721;SDS011;5412;59.450;18.124;2022-12-24T00:30:41;2.47;;;1.10;;
10721;SDS011;5412;59.450;18.124;2022-12-24T00:33:07;1.40;;;1.10;;
10721;SDS011;5412;59.450;18.124;2022-12-24T00:35:33;2.47;;;0.93;;
10721;SDS011;5412;59.450;18.124;2022-12-24T00:37:59;1.87;;;1.47;;
10721;SDS011;5412;59.450;18.124;2022-12-24T00:40:25;1.33;;;1.03;;
10721;SDS011;5412;59.450;18.124;2022-12-24T00:42:51;1.10;;;1.00;;
10721;SDS011;5412;59.450;18.124;2022-12-24T00:45:16;2.23;;;1.23;;
10721;SDS011;5412;59.450;18.124;2022-12-24T00:47:42;3.07;;;1.13;;
10721;SDS011;5412;59.450;18.124;2022-12-24T00:50:08;0.88;;;0.85;;
10721;SDS011;5412;59.450;18.124;2022-12-24T00:52:34;1.27;;;1.10;;
10721;SDS011;5412;59.450;18.124;2022-12-24T00:55:00;2.30;;;1.33;;
10721;SDS011;5412;59.450;18.124;2022-12-24T00:57:25;1.87;;;1.10;;
10721;SDS011;5412;59.450;18.124;2022-12-24T00:59:51;3.40;;;1.30;;
10721;SDS011;5412;59.450;18.124;2022-12-24T01:02:17;3.03;;;1.10;;
10721;SDS011;5412;59.450;18.124;2022-12-24T01:04:43;2.10;;;1.20;;
10721;SDS011;5412;59.450;18.124;2022-12-24T01:07:27;1.87;;;1.00;;
10721;SDS011;5412;59.450;18.124;2022-12-24T01:09:52;3.57;;;1.47;;
10721;SDS011;5412;59.450;18.124;2022-12-24T01:12:18;3.53;;;1.30;;
10721;SDS011;5412;59.450;18.124;2022-12-24T01:14:44;0.80;;;0.80;;
10721;SDS011;5412;59.450;18.124;2022-12-24T01:17:10;1.47;;;1.00;;
10721;SDS011;5412;59.450;18.124;2022-12-24T01:19:36;2.77;;;1.10;;
10721;SDS011;5412;59.450;18.124;2022-12-24T01:22:01;1.33;;;1.10;;
10721;SDS011;5412;59.450;18.124;2022-12-24T01:24:27;1.53;;;1.10;;
10721;SDS011;5412;59.450;18.124;2022-12-24T01:26:53;3.20;;;1.00;;
10721;SDS011;5412;59.450;18.124;2022-12-24T01:29:19;1.03;;;0.93;;
10721;SDS011;5412;59.450;18.124;2022-12-24T01:31:45;0.97;;;0.83;;
10721;SDS011;5412;59.450;18.124;2022-12-24T01:34:11;3.30;;;0.90;;
10721;SDS011;5412;59.450;18.124;2022-12-24T01:36:37;1.97;;;1.20;;
10721;SDS011;5412;59.450;18.124;2022-12-24T01:39:03;4.23;;;1.13;;
10721;SDS011;5412;59.450;18.124;2022-12-24T01:41:29;2.00;;;1.00;;
10721;SDS011;5412;59.450;18.124;2022-12-24T01:46:51;1.90;;;1.10;;
10721;SDS011;5412;59.450;18.124;2022-12-24T01:49:20;2.00;;;0.93;;
10721;SDS011;5412;59.450;18.124;2022-12-24T01:57:04;1.30;;;0.90;;
10721;SDS011;5412;59.450;18.124;2022-12-24T01:59:35;3.37;;;1.10;;
10721;SDS011;5412;59.450;18.124;2022-12-24T02:02:02;1.10;;;1.00;;
10721;SDS011;5412;59.450;18.124;2022-12-24T02:07:08;3.67;;;1.17;;
10721;SDS011;5412;59.450;18.124;2022-12-24T02:09:34;2.00;;;1.00;;
10721;SDS011;5412;59.450;18.124;2022-12-24T02:12:00;0.90;;;0.90;;
10721;SDS011;5412;59.450;18.124;2022-12-24T02:14:28;1.43;;;1.17;;
10721;SDS011;5412;59.450;18.124;2022-12-24T02:17:01;1.40;;;1.10;;
10721;SDS011;5412;59.450;18.124;2022-12-24T02:20:00;2.07;;;0.90;;
10721;SDS011;5412;59.450;18.124;2022-12-24T02:31:19;4.77;;;1.40;;
10721;SDS011;5412;59.450;18.124;2022-12-24T02:36:24;1.27;;;0.93;;
10721;SDS011;5412;59.450;18.124;2022-12-24T02:39:02;1.80;;;1.10;;
10721;SDS011;5412;59.450;18.124;2022-12-24T02:41:33;1.30;;;1.10;;
10721;SDS011;5412;59.450;18.124;2022-12-24T02:44:21;2.23;;;0.90;;
10721;SDS011;5412;59.450;18.124;2022-12-24T02:46:50;2.50;;;0.90;;
10721;SDS011;5412;59.450;18.124;2022-12-24T02:49:17;2.33;;;1.13;;
10721;SDS011;5412;59.450;18.124;2022-12-24T02:51:43;1.90;;;1.20;;
10721;SDS011;5412;59.450;18.124;2022-12-24T02:54:09;1.33;;;0.93;;
10721;SDS011;5412;59.450;18.124;2022-12-24T02:59:33;0.90;;;0.73;;
10721;SDS011;5412;59.450;18.124;2022-12-24T03:07:31;0.93;;;0.83;;
10721;SDS011;5412;59.450;18.124;2022-12-24T03:10:22;1.33;;;0.97;;
10721;SDS011;5412;59.450;18.124;2022-12-24T03:12:56;2.53;;;1.03;;
10721;SDS011;5412;59.450;18.124;2022-12-24T03:15:26;2.23;;;1.20;;
10721;SDS011;5412;59.450;18.124;2022-12-24T03:17:56;1.63;;;1.03;;
10721;SDS011;5412;59.450;18.124;2022-12-24T03:20:47;1.13;;;0.83;;
10721;SDS011;5412;59.450;18.124;2022-12-24T03:23:17;1.97;;;1.27;;
10721;SDS011;5412;59.450;18.124;2022-12-24T03:25:43;1.77;;;0.97;;
10721;SDS011;5412;59.450;18.124;2022-12-24T03:28:10;1.50;;;1.00;;
10721;SDS011;5412;59.450;18.124;2022-12-24T03:30:39;1.20;;;1.10;;
10721;SDS011;5412;59.450;18.124;2022-12-24T03:33:06;1.53;;;0.97;;
10721;SDS011;5412;59.450;18.124;2022-12-24T03:35:32;1.47;;;0.80;;
10721;SDS011;5412;59.450;18.124;2022-12-24T03:37:58;1.43;;;0.93;;
10721;SDS011;5412;59.450;18.124;2022-12-24T03:40:23;1.67;;;0.83;;
10721;SDS011;5412;59.450;18.124;2022-12-24T03:42:49;3.63;;;1.30;;
10721;SDS011;5412;59.450;18.124;2022-12-24T03:45:15;1.43;;;0.90;;
10721;SDS011;5412;59.450;18.124;2022-12-24T03:47:41;1.97;;;1.10;;
10721;SDS011;5412;59.450;18.124;2022-12-24T03:50:07;1.37;;;0.87;;
10721;SDS011;5412;59.450;18.124;2022-12-24T03:52:33;2.43;;;1.00;;
10721;SDS011;5412;59.450;18.124;2022-12-24T03:54:58;1.40;;;1.00;;
10721;SDS011;5412;59.450;18.124;2022-12-24T03:57:24;2.20;;;1.07;;
10721;SDS011;5412;59.450;18.124;2022-12-24T03:59:50;2.37;;;1.10;;
10721;SDS011;5412;59.450;18.124;2022-12-24T04:02:15;0.93;;;0.80;;
10721;SDS011;5412;59.450;18.124;2022-12-24T04:04:41;1.93;;;1.03;;
10721;SDS011;5412;59.450;18.124;2022-12-24T04:07:07;1.13;;;1.03;;
10721;SDS011;5412;59.450;18.124;2022-12-24T04:09:33;2.43;;;0.93;;
10721;SDS011;5412;59.450;18.124;2022-12-24T04:11:58;1.63;;;0.90;;
10721;SDS011;5412;59.450;18.124;2022-12-24T04:14:24;3.13;;;0.90;;
10721;SDS011;5412;59.450;18.124;2022-12-24T04:16:50;1.77;;;1.17;;
10721;SDS011;5412;59.450;18.124;2022-12-24T04:19:16;2.70;;;0.97;;
10721;SDS011;5412;59.450;18.124;2022-12-24T04:21:41;0.80;;;0.80;;
10721;SDS011;5412;59.450;18.124;2022-12-24T04:24:07;1.57;;;1.20;;
10721;SDS011;5412;59.450;18.124;2022-12-24T04:26:33;1.70;;;0.90;;
10721;SDS011;5412;59.450;18.124;2022-12-24T04:28:58;3.90;;;1.03;;
10721;SDS011;5412;59.450;18.124;2022-12-24T04:31:24;3.33;;;0.90;;
10721;SDS011;5412;59.450;18.124;2022-12-24T04:33:50;2.40;;;1.20;;
10721;SDS011;5412;59.450;18.124;2022-12-24T04:36:18;2.30;;;1.20;;
10721;SDS011;5412;59.450;18.124;2022-12-24T04:38:44;1.63;;;1.30;;
10721;SDS011;5412;59.450;18.124;2022-12-24T04:41:15;4.30;;;0.90;;
10721;SDS011;5412;59.450;18.124;2022-12-24T04:43:43;2.40;;;0.97;;
10721;SDS011;5412;59.450;18.124;2022-12-24T04:46:10;2.63;;;1.00;;
10721;SDS011;5412;59.450;18.124;2022-12-24T04:48:43;1.53;;;0.90;;
10721;SDS011;5412;59.450;18.124;2022-12-24T04:51:10;1.30;;;0.93;;
10721;SDS011;5412;59.450;18.124;2022-12-24T04:53:36;1.80;;;1.10;;
10721;SDS011;5412;59.450;18.124;2022-12-24T04:56:03;1.30;;;1.00;;
10721;SDS011;5412;59.450;18.124;2022-12-24T04:58:31;1.73;;;1.00;;
10721;SDS011;5412;59.450;18.124;2022-12-24T05:01:02;0.97;;;0.80;;
10721;SDS011;5412;59.450;18.124;2022-12-24T05:03:29;1.00;;;0.80;;
10721;SDS011;5412;59.450;18.124;2022-12-24T05:06:05;0.83;;;0.83;;
10721;SDS011;5412;59.450;18.124;2022-12-24T05:08:32;0.97;;;0.90;;
10721;SDS011;5412;59.450;18.124;2022-12-24T05:10:59;1.37;;;0.90;;
10721;SDS011;5412;59.450;18.124;2022-12-24T05:13:25;1.10;;;1.00;;
10721;SDS011;5412;59.450;18.124;2022-12-24T05:15:52;2.57;;;1.10;;
10721;SDS011;5412;59.450;18.124;2022-12-24T05:18:18;0.90;;;0.80;;
10721;SDS011;5412;59.450;18.124;2022-12-24T05:20:44;1.70;;;1.10;;
10721;SDS011;5412;59.450;18.124;2022-12-24T05:23:14;1.80;;;1.20;;
10721;SDS011;5412;59.450;18.124;2022-12-24T05:26:03;1.20;;;1.10;;
10721;SDS011;5412;59.450;18.124;2022-12-24T05:28:46;4.70;;;0.90;;
10721;SDS011;5412;59.450;18.124;2022-12-24T05:31:12;3.03;;;1.13;;
10721;SDS011;5412;59.450;18.124;2022-12-24T05:33:38;3.67;;;1.57;;
10721;SDS011;5412;59.450;18.124;2022-12-24T05:36:04;3.33;;;1.20;;
10721;SDS011;5412;59.450;18.124;2022-12-24T05:38:30;2.70;;;1.17;;
10721;SDS011;5412;59.450;18.124;2022-12-24T05:40:56;3.47;;;1.23;;
10721;SDS011;5412;59.450;18.124;2022-12-24T05:43:21;3.10;;;1.10;;
10721;SDS011;5412;59.450;18.124;2022-12-24T05:45:47;1.73;;;1.03;;
10721;SDS011;5412;59.450;18.124;2022-12-24T05:48:13;1.13;;;0.83;;
10721;SDS011;5412;59.450;18.124;2022-12-24T05:50:39;2.30;;;0.90;;
10721;SDS011;5412;59.450;18.124;2022-12-24T05:53:05;1.40;;;0.97;;
10721;SDS011;5412;59.450;18.124;2022-12-24T05:55:31;2.03;;;0.90;;
10721;SDS011;5412;59.450;18.124;2022-12-24T05:57:57;1.20;;;0.97;;
10721;SDS011;5412;59.450;18.124;2022-12-24T06:00:23;1.57;;;0.90;;
10721;SDS011;5412;59.450;18.124;2022-12-24T06:02:49;1.57;;;1.17;;
10721;SDS011;5412;59.450;18.124;2022-12-24T06:05:14;1.60;;;0.90;;
10721;SDS011;5412;59.450;18.124;2022-12-24T06:07:40;2.63;;;1.10;;
10721;SDS011;5412;59.450;18.124;2022-12-24T06:10:06;3.07;;;1.10;;
10721;SDS011;5412;59.450;18.124;2022-12-24T06:12:32;1.90;;;1.17;;
10721;SDS011;5412;59.450;18.124;2022-12-24T06:14:58;0.90;;;0.90;;
10721;SDS011;5412;59.450;18.124;2022-12-24T06:17:24;2.43;;;1.00;;
10721;SDS011;5412;59.450;18.124;2022-12-24T06:19:50;1.33;;;1.20;;
10721;SDS011;5412;59.450;18.124;2022-12-24T06:22:16;1.93;;;1.10;;
10721;SDS011;5412;59.450;18.124;2022-12-24T06:24:42;2.57;;;1.00;;
10721;SDS011;5412;59.450;18.124;2022-12-24T06:27:07;3.57;;;1.07;;
10721;SDS011;5412;59.450;18.124;2022-12-24T06:29:33;2.37;;;1.30;;
10721;SDS011;5412;59.450;18.124;2022-12-24T06:31:59;1.43;;;1.10;;
10721;SDS011;5412;59.450;18.124;2022-12-24T06:34:24;1.47;;;1.00;;
10721;SDS011;5412;59.450;18.124;2022-12-24T06:36:50;4.63;;;1.33;;
10721;SDS011;5412;59.450;18.124;2022-12-24T06:39:16;9.10;;;5.27;;
10721;SDS011;5412;59.450;18.124;2022-12-24T06:41:42;1.57;;;1.03;;
10721;SDS011;5412;59.450;18.124;2022-12-24T06:44:08;0.80;;;0.80;;
10721;SDS011;5412;59.450;18.124;2022-12-24T06:46:34;2.37;;;1.00;;
10721;SDS011;5412;59.450;18.124;2022-12-24T06:49:00;3.30;;;1.50;;
10721;SDS011;5412;59.450;18.124;2022-12-24T06:51:25;4.80;;;1.00;;
10721;SDS011;5412;59.450;18.124;2022-12-24T06:53:51;1.90;;;1.10;;
10721;SDS011;5412;59.450;18.124;2022-12-24T06:56:18;1.83;;;1.10;;
10721;SDS011;5412;59.450;18.124;2022-12-24T06:58:45;1.90;;;1.47;;
10721;SDS011;5412;59.450;18.124;2022-12-24T07:01:12;3.80;;;1.27;;
10721;SDS011;5412;59.450;18.124;2022-12-24T07:03:38;1.70;;;1.03;;
10721;SDS011;5412;59.450;18.124;2022-12-24T07:06:04;1.23;;;1.10;;
10721;SDS011;5412;59.450;18.124;2022-12-24T07:08:30;2.00;;;1.20;;
10721;SDS011;5412;59.450;18.124;2022-12-24T07:10:58;2.43;;;1.40;;
10721;SDS011;5412;59.450;18.124;2022-12-24T07:13:24;4.10;;;1.07;;
10721;SDS011;5412;59.450;18.124;2022-12-24T07:15:59;3.80;;;1.30;;
10721;SDS011;5412;59.450;18.124;2022-12-24T07:18:26;1.80;;;1.30;;
10721;SDS011;5412;59.450;18.124;2022-12-24T07:20:52;1.77;;;1.20;;
10721;SDS011;5412;59.450;18.124;2022-12-24T07:23:18;4.53;;;1.50;;
10721;SDS011;5412;59.450;18.124;2022-12-24T07:25:44;5.30;;;1.53;;
10721;SDS011;5412;59.450;18.124;2022-12-24T07:28:10;1.90;;;1.40;;
10721;SDS011;5412;59.450;18.124;2022-12-24T07:30:36;1.83;;;1.10;;
10721;SDS011;5412;59.450;18.124;2022-12-24T07:33:01;3.53;;;1.53;;
10721;SDS011;5412;59.450;18.124;2022-12-24T07:35:27;2.50;;;1.50;;
10721;SDS011;5412;59.450;18.124;2022-12-24T07:37:53;1.50;;;1.40;;
10721;SDS011;5412;59.450;18.124;2022-12-24T07:40:18;1.43;;;1.33;;
10721;SDS011;5412;59.450;18.124;2022-12-24T07:42:44;2.83;;;1.50;;
10721;SDS011;5412;59.450;18.124;2022-12-24T07:45:10;2.50;;;1.50;;
10721;SDS011;5412;59.450;18.124;2022-12-24T07:47:36;4.23;;;1.63;;
10721;SDS011;5412;59.450;18.124;2022-12-24T07:50:02;2.50;;;1.23;;
10721;SDS011;5412;59.450;18.124;2022-12-24T07:52:29;3.03;;;1.83;;
10721;SDS011;5412;59.450;18.124;2022-12-24T07:54:55;2.97;;;1.53;;
10721;SDS011;5412;59.450;18.124;2022-12-24T07:57:21;1.67;;;1.57;;
10721;SDS011;5412;59.450;18.124;2022-12-24T07:59:46;2.50;;;1.67;;
10721;SDS011;5412;59.450;18.124;2022-12-24T08:02:12;2.90;;;1.93;;
10721;SDS011;5412;59.450;18.124;2022-12-24T08:04:38;1.97;;;1.77;;
10721;SDS011;5412;59.450;18.124;2022-12-24T08:07:04;8.43;;;2.30;;
10721;SDS011;5412;59.450;18.124;2022-12-24T08:09:31;4.40;;;2.40;;
10721;SDS011;5412;59.450;18.124;2022-12-24T08:11:58;6.00;;;2.73;;
10721;SDS011;5412;59.450;18.124;2022-12-24T08:14:24;2.90;;;2.30;;
10721;SDS011;5412;59.450;18.124;2022-12-24T08:16:49;4.50;;;2.33;;
10721;SDS011;5412;59.450;18.124;2022-12-24T08:19:15;5.63;;;2.70;;
10721;SDS011;5412;59.450;18.124;2022-12-24T08:21:41;3.70;;;2.90;;
10721;SDS011;5412;59.450;18.124;2022-12-24T08:24:06;3.37;;;2.50;;
10721;SDS011;5412;59.450;18.124;2022-12-24T08:26:32;3.03;;;2.10;;
10721;SDS011;5412;59.450;18.124;2022-12-24T08:28:58;3.13;;;2.03;;
10721;SDS011;5412;59.450;18.124;2022-12-24T08:31:24;3.07;;;2.10;;
10721;SDS011;5412;59.450;18.124;2022-12-24T08:33:50;3.50;;;1.97;;
10721;SDS011;5412;59.450;18.124;2022-12-24T08:36:15;3.93;;;1.87;;
10721;SDS011;5412;59.450;18.124;2022-12-24T08:38:41;2.13;;;1.80;;
10721;SDS011;5412;59.450;18.124;2022-12-24T08:41:07;4.00;;;2.07;;
10721;SDS011;5412;59.450;18.124;2022-12-24T08:43:33;4.60;;;2.10;;
10721;SDS011;5412;59.450;18.124;2022-12-24T08:46:03;4.30;;;2.10;;
10721;SDS011;5412;59.450;18.124;2022-12-24T08:48:30;2.93;;;2.07;;
10721;SDS011;5412;59.450;18.124;2022-12-24T08:50:57;3.47;;;2.20;;
10721;SDS011;5412;59.450;18.124;2022-12-24T08:53:23;3.13;;;2.40;;
10721;SDS011;5412;59.450;18.124;2022-12-24T08:55:49;3.83;;;2.50;;
10721;SDS011;5412;59.450;18.124;2022-12-24T08:58:14;3.07;;;1.97;;
10721;SDS011;5412;59.450;18.124;2022-12-24T09:00:40;3.57;;;2.30;;
10721;SDS011;5412;59.450;18.124;2022-12-24T09:03:06;2.17;;;1.90;;
10721;SDS011;5412;59.450;18.124;2022-12-24T09:05:32;3.47;;;2.33;;
10721;SDS011;5412;59.450;18.124;2022-12-24T09:07:57;2.20;;;1.97;;
10721;SDS011;5412;59.450;18.124;2022-12-24T09:10:23;3.27;;;2.43;;
10721;SDS011;5412;59.450;18.124;2022-12-24T09:12:49;3.93;;;3.50;;
10721;SDS011;5412;59.450;18.124;2022-12-24T09:15:15;7.23;;;4.27;;
10721;SDS011;5412;59.450;18.124;2022-12-24T09:17:41;5.50;;;4.00;;
10721;SDS011;5412;59.450;18.124;2022-12-24T09:20:07;6.57;;;4.33;;
10721;SDS011;5412;59.450;18.124;2022-12-24T09:22:34;8.13;;;4.77;;
10721;SDS011;5412;59.450;18.124;2022-12-24T09:25:01;5.27;;;3.97;;
10721;SDS011;5412;59.450;18.124;2022-12-24T09:27:29;4.80;;;3.30;;
10721;SDS011;5412;59.450;18.124;2022-12-24T09:29:55;5.03;;;2.87;;
10721;SDS011;5412;59.450;18.124;2022-12-24T09:32:21;2.97;;;1.93;;
10721;SDS011;5412;59.450;18.124;2022-12-24T09:34:47;3.70;;;2.43;;
10721;SDS011;5412;59.450;18.124;2022-12-24T09:37:12;5.50;;;3.37;;
10721;SDS011;5412;59.450;18.124;2022-12-24T09:39:38;5.30;;;3.00;;
10721;SDS011;5412;59.450;18.124;2022-12-24T09:47:03;6.33;;;2.87;;
10721;SDS011;5412;59.450;18.124;2022-12-24T09:49:51;5.47;;;2.90;;
10721;SDS011;5412;59.450;18.124;2022-12-24T09:52:33;2.77;;;2.17;;
10721;SDS011;5412;59.450;18.124;2022-12-24T09:55:16;3.30;;;2.60;;
10721;SDS011;5412;59.450;18.124;2022-12-24T09:57:49;3.67;;;2.80;;
10721;SDS011;5412;59.450;18.124;2022-12-24T10:00:19;3.93;;;2.60;;
10721;SDS011;5412;59.450;18.124;2022-12-24T10:02:53;3.97;;;2.50;;
10721;SDS011;5412;59.450;18.124;2022-12-24T10:06:05;3.63;;;2.20;;
10721;SDS011;5412;59.450;18.124;2022-12-24T10:08:12;3.07;;;2.30;;
10721;SDS011;5412;59.450;18.124;2022-12-24T10:10:57;5.03;;;2.23;;
10721;SDS011;5412;59.450;18.124;2022-12-24T10:13:39;4.10;;;2.77;;
10721;SDS011;5412;59.450;18.124;2022-12-24T10:16:13;4.77;;;2.77;;
10721;SDS011;5412;59.450;18.124;2022-12-24T10:24:11;4.57;;;2.27;;
10721;SDS011;5412;59.450;18.124;2022-12-24T10:26:51;3.10;;;2.10;;
10721;SDS011;5412;59.450;18.124;2022-12-24T10:29:29;6.20;;;3.33;;
10721;SDS011;5412;59.450;18.124;2022-12-24T10:34:32;3.93;;;2.20;;
10721;SDS011;5412;59.450;18.124;2022-12-24T10:37:24;3.40;;;2.50;;
10721;SDS011;5412;59.450;18.124;2022-12-24T10:39:52;7.00;;;2.47;;
10721;SDS011;5412;59.450;18.124;2022-12-24T10:42:20;3.87;;;2.40;;
10721;SDS011;5412;59.450;18.124;2022-12-24T10:44:49;3.27;;;2.50;;
10721;SDS011;5412;59.450;18.124;2022-12-24T10:47:20;3.37;;;2.53;;
10721;SDS011;5412;59.450;18.124;2022-12-24T10:49:59;3.87;;;2.03;;
10721;SDS011;5412;59.450;18.124;2022-12-24T10:52:30;3.30;;;2.20;;
10721;SDS011;5412;59.450;18.124;2022-12-24T10:57:31;3.60;;;2.30;;
10721;SDS011;5412;59.450;18.124;2022-12-24T10:59:57;5.67;;;2.30;;
10721;SDS011;5412;59.450;18.124;2022-12-24T11:02:25;4.83;;;2.73;;
10721;SDS011;5412;59.450;18.124;2022-12-24T11:04:56;2.70;;;2.13;;
10721;SDS011;5412;59.450;18.124;2022-12-24T11:07:26;5.00;;;2.53;;
10721;SDS011;5412;59.450;18.124;2022-12-24T11:12:23;4.20;;;2.30;;
10721;SDS011;5412;59.450;18.124;2022-12-24T11:15:37;4.63;;;2.50;;
10721;SDS011;5412;59.450;18.124;2022-12-24T11:17:58;7.13;;;4.00;;
10721;SDS011;5412;59.450;18.124;2022-12-24T11:20:27;3.70;;;2.70;;
10721;SDS011;5412;59.450;18.124;2022-12-24T11:22:54;2.73;;;2.20;;
10721;SDS011;5412;59.450;18.124;2022-12-24T11:25:25;5.30;;;3.20;;
10721;SDS011;5412;59.450;18.124;2022-12-24T11:27:53;6.53;;;2.40;;
10721;SDS011;5412;59.450;18.124;2022-12-24T11:30:24;5.03;;;2.47;;
10721;SDS011;5412;59.450;18.124;2022-12-24T11:35:25;3.50;;;2.57;;
10721;SDS011;5412;59.450;18.124;2022-12-24T11:40:24;3.43;;;2.57;;
10721;SDS011;5412;59.450;18.124;2022-12-24T11:42:57;3.03;;;2.17;;
10721;SDS011;5412;59.450;18.124;2022-12-24T11:45:25;3.50;;;2.63;;
10721;SDS011;5412;59.450;18.124;2022-12-24T11:47:53;2.30;;;2.00;;
10721;SDS011;5412;59.450;18.124;2022-12-24T11:50:21;3.43;;;2.20;;
10721;SDS011;5412;59.450;18.124;2022-12-24T11:55:42;2.53;;;2.20;;
10721;SDS011;5412;59.450;18.124;2022-12-24T12:03:41;5.90;;;3.20;;
10721;SDS011;5412;59.450;18.124;2022-12-24T12:06:20;5.70;;;3.27;;
10721;SDS011;5412;59.450;18.124;2022-12-24T12:08:49;9.03;;;3.80;;
10721;SDS011;5412;59.450;18.124;2022-12-24T12:11:16;7.00;;;3.50;;
10721;SDS011;5412;59.450;18.124;2022-12-24T12:13:43;6.50;;;3.53;;
10721;SDS011;5412;59.450;18.124;2022-12-24T12:19:18;5.30;;;4.03;;
10721;SDS011;5412;59.450;18.124;2022-12-24T12:21:47;5.97;;;4.10;;
10721;SDS011;5412;59.450;18.124;2022-12-24T12:24:35;6.47;;;4.10;;
10721;SDS011;5412;59.450;18.124;2022-12-24T12:27:18;6.83;;;3.90;;
10721;SDS011;5412;59.450;18.124;2022-12-24T12:29:56;7.20;;;3.23;;
10721;SDS011;5412;59.450;18.124;2022-12-24T12:35:28;3.00;;;2.50;;
10721;SDS011;5412;59.450;18.124;2022-12-24T12:38:00;4.03;;;2.90;;
10721;SDS011;5412;59.450;18.124;2022-12-24T12:57:12;5.77;;;3.20;;
10721;SDS011;5412;59.450;18.124;2022-12-24T13:02:32;4.97;;;2.97;;
10721;SDS011;5412;59.450;18.124;2022-12-24T13:21:49;5.33;;;3.33;;
10721;SDS011;5412;59.450;18.124;2022-12-24T13:24:19;3.10;;;2.77;;
10721;SDS011;5412;59.450;18.124;2022-12-24T13:27:06;5.63;;;3.47;;
10721;SDS011;5412;59.450;18.124;2022-12-24T13:37:22;4.90;;;3.50;;
10721;SDS011;5412;59.450;18.124;2022-12-24T13:55:55;6.10;;;3.83;;
10721;SDS011;5412;59.450;18.124;2022-12-24T13:58:31;6.53;;;4.33;;
10721;SDS011;5412;59.450;18.124;2022-12-24T14:00:59;6.17;;;3.77;;
10721;SDS011;5412;59.450;18.124;2022-12-24T14:03:43;8.57;;;4.10;;
10721;SDS011;5412;59.450;18.124;2022-12-24T14:06:25;5.50;;;3.70;;
10721;SDS011;5412;59.450;18.124;2022-12-24T14:09:08;4.27;;;3.30;;
10721;SDS011;5412;59.450;18.124;2022-12-24T14:14:26;3.93;;;2.83;;
10721;SDS011;5412;59.450;18.124;2022-12-24T14:16:52;6.30;;;3.77;;
10721;SDS011;5412;59.450;18.124;2022-12-24T14:19:23;6.33;;;4.27;;
10721;SDS011;5412;59.450;18.124;2022-12-24T14:24:42;6.37;;;3.13;;
10721;SDS011;5412;59.450;18.124;2022-12-24T14:27:16;6.00;;;3.50;;
10721;SDS011;5412;59.450;18.124;2022-12-24T14:29:51;4.50;;;3.23;;
10721;SDS011;5412;59.450;18.124;2022-12-24T14:32:36;5.57;;;3.63;;
10721;SDS011;5412;59.450;18.124;2022-12-24T14:37:47;4.57;;;2.70;;
10721;SDS011;5412;59.450;18.124;2022-12-24T14:40:28;5.87;;;3.60;;
10721;SDS011;5412;59.450;18.124;2022-12-24T14:51:23;5.07;;;4.00;;
10721;SDS011;5412;59.450;18.124;2022-12-24T14:54:13;4.87;;;3.37;;
10721;SDS011;5412;59.450;18.124;2022-12-24T14:56:42;4.07;;;3.23;;
10721;SDS011;5412;59.450;18.124;2022-12-24T14:59:15;6.13;;;3.40;;
10721;SDS011;5412;59.450;18.124;2022-12-24T15:01:42;4.80;;;3.33;;
10721;SDS011;5412;59.450;18.124;2022-12-24T15:06:35;7.13;;;4.13;;
10721;SDS011;5412;59.450;18.124;2022-12-24T15:09:27;6.80;;;4.00;;
10721;SDS011;5412;59.450;18.124;2022-12-24T15:11:56;6.80;;;4.50;;
10721;SDS011;5412;59.450;18.124;2022-12-24T15:14:25;8.70;;;5.40;;
10721;SDS011;5412;59.450;18.124;2022-12-24T15:19:22;11.83;;;5.60;;
10721;SDS011;5412;59.450;18.124;2022-12-24T15:21:51;10.43;;;5.63;;
10721;SDS011;5412;59.450;18.124;2022-12-24T15:24:32;9.17;;;5.77;;
10721;SDS011;5412;59.450;18.124;2022-12-24T15:27:00;6.87;;;5.23;;
10721;SDS011;5412;59.450;18.124;2022-12-24T15:29:38;7.23;;;5.00;;
10721;SDS011;5412;59.450;18.124;2022-12-24T15:32:09;6.67;;;5.07;;
10721;SDS011;5412;59.450;18.124;2022-12-24T15:34:45;9.43;;;4.67;;
10721;SDS011;5412;59.450;18.124;2022-12-24T15:37:17;7.27;;;4.63;;
10721;SDS011;5412;59.450;18.124;2022-12-24T15:40:07;6.47;;;4.13;;
10721;SDS011;5412;59.450;18.124;2022-12-24T15:42:42;7.33;;;4.70;;
10721;SDS011;5412;59.450;18.124;2022-12-24T15:45:12;7.83;;;4.70;;
10721;SDS011;5412;59.450;18.124;2022-12-24T15:48:00;5.97;;;4.40;;
10721;SDS011;5412;59.450;18.124;2022-12-24T15:50:35;7.27;;;5.37;;
10721;SDS011;5412;59.450;18.124;2022-12-24T15:53:13;7.67;;;5.00;;
10721;SDS011;5412;59.450;18.124;2022-12-24T15:55:44;9.40;;;5.60;;
10721;SDS011;5412;59.450;18.124;2022-12-24T16:01:03;11.40;;;6.10;;
10721;SDS011;5412;59.450;18.124;2022-12-24T16:03:29;9.67;;;5.90;;
10721;SDS011;5412;59.450;18.124;2022-12-24T16:08:32;11.63;;;7.20;;
10721;SDS011;5412;59.450;18.124;2022-12-24T16:13:37;10.87;;;6.53;;
10721;SDS011;5412;59.450;18.124;2022-12-24T16:16:09;12.37;;;6.57;;
10721;SDS011;5412;59.450;18.124;2022-12-24T16:21:06;10.80;;;6.77;;
10721;SDS011;5412;59.450;18.124;2022-12-24T16:26:03;9.33;;;6.07;;
10721;SDS011;5412;59.450;18.124;2022-12-24T16:28:30;10.43;;;6.27;;
10721;SDS011;5412;59.450;18.124;2022-12-24T16:30:56;9.40;;;6.60;;
10721;SDS011;5412;59.450;18.124;2022-12-24T16:33:22;8.70;;;5.60;;
10721;SDS011;5412;59.450;18.124;2022-12-24T16:35:48;9.23;;;5.80;;
10721;SDS011;5412;59.450;18.124;2022-12-24T16:38:14;8.23;;;6.13;;
10721;SDS011;5412;59.450;18.124;2022-12-24T16:40:41;10.57;;;6.73;;
10721;SDS011;5412;59.450;18.124;2022-12-24T16:43:08;13.43;;;7.63;;
10721;SDS011;5412;59.450;18.124;2022-12-24T16:45:53;11.67;;;7.60;;
10721;SDS011;5412;59.450;18.124;2022-12-24T16:48:25;9.07;;;6.40;;
10721;SDS011;5412;59.450;18.124;2022-12-24T16:50:52;10.00;;;6.57;;
10721;SDS011;5412;59.450;18.124;2022-12-24T16:53:18;10.70;;;6.27;;
10721;SDS011;5412;59.450;18.124;2022-12-24T16:55:46;9.77;;;6.40;;
10721;SDS011;5412;59.450;18.124;2022-12-24T16:58:14;12.00;;;6.63;;
10721;SDS011;5412;59.450;18.124;2022-12-24T17:00:41;10.80;;;6.60;;
10721;SDS011;5412;59.450;18.124;2022-12-24T17:03:08;10.63;;;6.70;;
10721;SDS011;5412;59.450;18.124;2022-12-24T17:05:38;10.30;;;6.40;;
10721;SDS011;5412;59.450;18.124;2022-12-24T17:08:05;9.80;;;6.83;;
10721;SDS011;5412;59.450;18.124;2022-12-24T17:10:32;10.80;;;6.20;;
10721;SDS011;5412;59.450;18.124;2022-12-24T17:12:58;11.40;;;6.80;;
10721;SDS011;5412;59.450;18.124;2022-12-24T17:15:23;9.47;;;6.63;;
10721;SDS011;5412;59.450;18.124;2022-12-24T17:17:49;8.53;;;6.37;;
10721;SDS011;5412;59.450;18.124;2022-12-24T17:20:15;12.70;;;7.40;;
10721;SDS011;5412;59.450;18.124;2022-12-24T17:22:41;11.93;;;7.03;;
10721;SDS011;5412;59.450;18.124;2022-12-24T17:25:07;11.00;;;6.83;;
10721;SDS011;5412;59.450;18.124;2022-12-24T17:27:35;16.30;;;7.90;;
10721;SDS011;5412;59.450;18.124;2022-12-24T17:30:01;14.60;;;7.70;;
10721;SDS011;5412;59.450;18.124;2022-12-24T17:32:27;11.67;;;7.70;;
10721;SDS011;5412;59.450;18.124;2022-12-24T17:34:53;9.40;;;7.13;;
10721;SDS011;5412;59.450;18.124;2022-12-24T17:37:19;10.43;;;7.20;;
10721;SDS011;5412;59.450;18.124;2022-12-24T17:39:45;9.37;;;6.97;;